Time;durP1;ratioP1;P1;durP2;ratioP2;P2;SDS_P1;SDS_P2;PMS_P1;PMS_P2;Temp;Humidity;BMP_temperature;BMP_pressure;BME280_temperature;BME280_humidity;BME280_pressure;Samples;Min_cycle;Max_cycle;Signal;HPM_P1;HPM_P2
2021/04/11 00:01:14;;;;;;;2.55;2.35;;;22.10;36.40;;;;;;4976121;28;20051;-77
2021/04/11 00:03:40;;;;;;;5.78;4.22;;;22.10;36.40;;;;;;4975236;28;20022;-76
2021/04/11 00:06:05;;;;;;;4.30;3.72;;;22.10;36.40;;;;;;4975485;28;20422;-76
2021/04/11 00:08:31;;;;;;;3.50;2.35;;;22.00;36.40;;;;;;4993445;28;20023;-75
2021/04/11 00:10:59;;;;;;;4.13;3.72;;;22.10;36.50;;;;;;4992901;28;20022;-75
2021/04/11 00:13:35;;;;;;;3.53;3.22;;;22.00;36.50;;;;;;4958837;28;20506;-76
2021/04/11 00:16:01;;;;;;;4.28;3.42;;;22.00;36.50;;;;;;4975895;28;20019;-75
2021/04/11 00:18:27;;;;;;;3.75;3.10;;;22.00;36.50;;;;;;4975424;28;20375;-75
2021/04/11 00:20:52;;;;;;;4.85;4.22;;;22.00;37.20;;;;;;4965533;28;20034;-75
2021/04/11 00:23:27;;;;;;;4.93;4.43;;;22.00;36.50;;;;;;4993453;28;20022;-75
2021/04/11 00:26:02;;;;;;;3.92;3.58;;;21.90;36.50;;;;;;4975656;28;20026;-77
2021/04/11 00:28:28;;;;;;;5.25;4.35;;;21.90;36.60;;;;;;4992596;28;20061;-77
2021/04/11 00:30:53;;;;;;;4.72;4.22;;;21.90;36.60;;;;;;4992645;28;20506;-77
2021/04/11 00:33:26;;;;;;;3.90;3.50;;;21.90;36.60;;;;;;4992241;28;20027;-77
2021/04/11 00:35:56;;;;;;;2.30;1.92;;;21.90;36.60;;;;;;4993403;28;20027;-77
2021/04/11 00:38:22;;;;;;;3.50;2.97;;;21.90;36.60;;;;;;4974321;28;20498;-75
2021/04/11 00:40:47;;;;;;;3.50;3.20;;;21.80;36.60;;;;;;4975065;28;20041;-72
2021/04/11 00:43:15;;;;;;;3.80;3.13;;;21.80;36.60;;;;;;4975304;28;20053;-72
2021/04/11 00:46:15;;;;;;;3.20;2.90;;;21.80;36.70;;;;;;4974987;28;20030;-72
2021/04/11 00:48:44;;;;;;;4.82;3.75;;;21.80;37.30;;;;;;4962368;28;20026;-72
2021/04/11 00:51:17;;;;;;;5.15;3.17;;;21.80;36.60;;;;;;4975150;28;20027;-72
2021/04/11 00:53:44;;;;;;;2.28;2.08;;;21.70;36.60;;;;;;4974731;28;20042;-72
2021/04/11 00:56:10;;;;;;;4.07;3.67;;;21.70;36.60;;;;;;4975407;28;20088;-72
2021/04/11 00:58:35;;;;;;;4.18;3.78;;;21.70;36.70;;;;;;4975538;28;20064;-72
2021/04/11 01:01:01;;;;;;;3.78;3.33;;;21.70;36.60;;;;;;4975287;28;20491;-72
2021/04/11 01:03:29;;;;;;;3.30;3.00;;;21.70;36.70;;;;;;4975649;28;20034;-73
2021/04/11 01:05:55;;;;;;;3.97;3.58;;;21.70;36.70;;;;;;4974417;28;20030;-75
2021/04/11 01:08:25;;;;;;;2.25;2.05;;;21.70;36.70;;;;;;4975214;28;20029;-75
2021/04/11 01:10:58;;;;;;;4.97;3.70;;;21.70;36.70;;;;;;4974932;28;20034;-77
2021/04/11 01:13:23;;;;;;;3.55;3.25;;;21.60;36.60;;;;;;4974829;28;20034;-77
2021/04/11 01:15:49;;;;;;;3.50;3.20;;;21.60;36.60;;;;;;4975469;28;20030;-77
2021/04/11 01:18:15;;;;;;;4.07;3.50;;;21.60;36.60;;;;;;4975385;28;20030;-77
2021/04/11 01:20:40;;;;;;;2.08;1.77;;;21.60;36.60;;;;;;4976295;28;20042;-75
2021/04/11 01:23:20;;;;;;;3.70;3.40;;;21.60;36.70;;;;;;4992470;28;20038;-75
2021/04/11 01:25:46;;;;;;;3.10;2.78;;;21.60;36.60;;;;;;4974829;28;20022;-76
2021/04/11 01:28:15;;;;;;;3.88;3.05;;;21.60;36.60;;;;;;4975304;28;20029;-76
2021/04/11 01:30:41;;;;;;;3.28;3.00;;;21.50;36.60;;;;;;4991316;28;20053;-76
2021/04/11 01:33:09;;;;;;;2.72;2.53;;;21.60;36.50;;;;;;4991864;28;20498;-75
2021/04/11 01:35:34;;;;;;;4.20;3.00;;;21.50;36.50;;;;;;4975265;28;20030;-76
2021/04/11 01:38:00;;;;;;;4.03;2.35;;;21.60;36.50;;;;;;4974810;28;20100;-76
2021/04/11 01:40:47;;;;;;;3.08;2.78;;;21.60;36.50;;;;;;4974907;28;20030;-76
2021/04/11 01:43:13;;;;;;;2.90;2.70;;;21.60;36.50;;;;;;4975635;28;20035;-76
2021/04/11 01:45:40;;;;;;;2.70;2.50;;;21.60;36.40;;;;;;4960942;28;20041;-76
2021/04/11 01:48:06;;;;;;;4.97;2.35;;;21.60;36.40;;;;;;4974221;28;20047;-76
2021/04/11 01:50:41;;;;;;;2.53;2.33;;;21.60;36.40;;;;;;4978533;28;20441;-76
2021/04/11 01:53:07;;;;;;;2.17;2.07;;;21.60;36.40;;;;;;4978038;28;20050;-76
2021/04/11 01:55:32;;;;;;;4.72;2.17;;;21.50;36.30;;;;;;4978542;28;20761;-76
2021/04/11 01:57:58;;;;;;;3.85;2.92;;;21.50;36.30;;;;;;4942750;28;20517;-75
2021/04/11 02:00:35;;;;;;;1.35;1.23;;;21.50;36.20;;;;;;4960266;28;20517;-76
2021/04/11 02:03:02;;;;;;;2.40;2.20;;;21.50;36.20;;;;;;4978303;28;20105;-76
2021/04/11 02:05:27;;;;;;;2.05;1.85;;;21.50;36.20;;;;;;4974625;28;20023;-75
2021/04/11 02:07:54;;;;;;;2.25;2.08;;;21.50;36.20;;;;;;4977769;28;20031;-77
2021/04/11 02:10:23;;;;;;;1.55;1.15;;;21.50;36.20;;;;;;4978683;28;20023;-77
2021/04/11 02:12:55;;;;;;;1.95;1.70;;;21.50;36.30;;;;;;4978021;28;20213;-76
2021/04/11 02:15:28;;;;;;;2.05;1.80;;;21.50;36.30;;;;;;4978299;28;20041;-77
2021/04/11 02:17:54;;;;;;;1.73;1.63;;;21.50;36.20;;;;;;4960214;28;20041;-77
2021/04/11 02:20:21;;;;;;;2.40;2.20;;;21.40;36.20;;;;;;4976293;28;20043;-77
2021/04/11 02:22:46;;;;;;;2.33;1.85;;;21.40;36.20;;;;;;4978095;28;20069;-76
2021/04/11 02:25:19;;;;;;;1.73;1.63;;;21.40;36.20;;;;;;4978367;28;20460;-76
2021/04/11 02:27:45;;;;;;;2.00;1.63;;;21.40;36.20;;;;;;4977763;28;20018;-70
2021/04/11 02:30:13;;;;;;;1.90;1.80;;;21.40;36.20;;;;;;4977850;28;20022;-76
2021/04/11 02:32:39;;;;;;;2.20;2.10;;;21.40;36.20;;;;;;4977878;28;20023;-75
2021/04/11 02:35:05;;;;;;;2.30;2.03;;;21.40;36.20;;;;;;4977403;28;20180;-78
2021/04/11 02:37:32;;;;;;;1.83;1.73;;;21.40;36.30;;;;;;4977359;28;20046;-78
2021/04/11 02:39:58;;;;;;;2.65;2.20;;;21.30;36.20;;;;;;4977801;28;20026;-78
2021/04/11 02:42:30;;;;;;;2.47;2.05;;;21.30;36.30;;;;;;4977016;28;21132;-77
2021/04/11 02:44:56;;;;;;;2.42;2.22;;;21.30;36.30;;;;;;4994219;28;20486;-74
2021/04/11 02:47:21;;;;;;;2.78;2.53;;;21.30;36.30;;;;;;4977795;28;20125;-75
2021/04/11 02:49:51;;;;;;;2.40;2.20;;;21.30;36.30;;;;;;4977678;28;20383;-74
2021/04/11 02:52:26;;;;;;;4.35;1.73;;;21.30;36.30;;;;;;4960415;28;20494;-75
2021/04/11 02:54:53;;;;;;;1.75;1.65;;;21.30;36.30;;;;;;4977228;28;20474;-75
2021/04/11 02:57:18;;;;;;;2.10;1.92;;;21.20;36.20;;;;;;4959959;28;20026;-74
2021/04/11 02:59:45;;;;;;;2.10;1.33;;;21.20;36.20;;;;;;4977168;28;20038;-75
2021/04/11 03:02:11;;;;;;;1.33;1.23;;;21.20;36.30;;;;;;4977003;28;20022;-75
2021/04/11 03:04:37;;;;;;;1.77;1.67;;;21.20;36.20;;;;;;4977028;28;20406;-74
2021/04/11 03:07:07;;;;;;;1.88;1.73;;;21.20;36.90;;;;;;4976594;28;20023;-75
2021/04/11 03:09:35;;;;;;;1.85;1.75;;;21.20;36.20;;;;;;4977158;28;20046;-75
2021/04/11 03:12:01;;;;;;;3.17;2.10;;;21.20;36.30;;;;;;4977210;28;20410;-77
2021/04/11 03:14:28;;;;;;;1.88;1.63;;;21.10;36.20;;;;;;4977124;28;20034;-77
2021/04/11 03:16:54;;;;;;;1.60;1.50;;;21.10;36.20;;;;;;4977046;28;20573;-76
2021/04/11 03:19:28;;;;;;;0.80;0.63;;;21.10;36.20;;;;;;4981590;28;20038;-76
2021/04/11 03:21:54;;;;;;;1.55;1.45;;;21.10;36.20;;;;;;4983481;28;20030;-76
2021/04/11 03:24:19;;;;;;;2.00;1.90;;;21.10;36.30;;;;;;4994117;28;20100;-76
2021/04/11 03:27:14;;;;;;;1.23;1.23;;;21.10;36.20;;;;;;4976241;28;20048;-75
2021/04/11 03:30:02;;;;;;;1.50;1.13;;;21.10;36.20;;;;;;4993779;28;20039;-76
2021/04/11 03:32:40;;;;;;;0.65;0.65;;;21.10;36.10;;;;;;4976414;28;20053;-76
2021/04/11 03:35:07;;;;;;;1.05;0.82;;;21.10;36.10;;;;;;4977024;28;20442;-76
2021/04/11 03:37:32;;;;;;;1.35;1.25;;;21.10;36.00;;;;;;4975632;28;20050;-77
2021/04/11 03:39:58;;;;;;;1.50;1.40;;;21.10;35.90;;;;;;4958074;28;20050;-76
2021/04/11 03:42:25;;;;;;;1.50;1.40;;;21.10;35.90;;;;;;4976581;28;20561;-76
2021/04/11 03:44:55;;;;;;;1.35;1.25;;;21.10;36.00;;;;;;4976987;28;20026;-76
2021/04/11 03:47:29;;;;;;;1.13;1.13;;;21.10;35.90;;;;;;4958047;28;20077;-76
2021/04/11 03:50:02;;;;;;;3.22;1.30;;;21.10;35.90;;;;;;4993880;28;20027;-76
2021/04/11 03:55:49;;;;;;;1.27;1.27;;;21.10;35.90;;;;;;4990888;28;20112;-75
2021/04/11 03:58:24;;;;;;;1.30;1.20;;;21.10;35.90;;;;;;4981640;28;20439;-75
2021/04/11 04:00:53;;;;;;;0.20;0.10;;;21.10;35.90;;;;;;5010814;28;20034;-75
2021/04/11 04:03:22;;;;;;;0.10;0.10;;;21.10;35.90;;;;;;4975474;28;20018;-76
2021/04/11 04:05:48;;;;;;;0.10;0.10;;;21.10;35.80;;;;;;4976038;28;20484;-75
2021/04/11 04:08:14;;;;;;;0.13;0.13;;;21.10;35.90;;;;;;4975873;28;20073;-75
2021/04/11 04:10:49;;;;;;;0.10;0.10;;;21.00;35.80;;;;;;4975334;28;20463;-74
2021/04/11 04:13:19;;;;;;;1.00;0.20;;;21.00;36.40;;;;;;4968343;28;20030;-75
2021/04/11 04:15:51;;;;;;;0.10;0.10;;;21.00;35.80;;;;;;4975987;28;20042;-75
2021/04/11 04:18:31;;;;;;;0.00;0.00;;;21.00;35.80;;;;;;4961055;28;20482;-76
2021/04/11 04:20:57;;;;;;;0.00;0.00;;;21.00;35.90;;;;;;4995036;28;20069;-75
2021/04/11 04:23:50;;;;;;;0.10;0.10;;;20.90;35.80;;;;;;4997583;28;20062;-75
2021/04/11 04:26:19;;;;;;;0.03;0.00;;;20.90;35.80;;;;;;4975759;28;20119;-76
2021/04/11 04:28:56;;;;;;;0.03;0.03;;;20.90;35.90;;;;;;4988920;28;20037;-75
2021/04/11 04:31:34;;;;;;;0.03;0.03;;;20.90;35.80;;;;;;4976336;28;20054;-75
2021/04/11 04:34:31;;;;;;;0.03;0.03;;;20.90;35.80;;;;;;4976960;28;20030;-77
2021/04/11 04:37:04;;;;;;;0.00;0.00;;;20.90;35.80;;;;;;4906928;29;20123;-77
2021/04/11 04:40:04;;;;;;;0.05;0.05;;;20.90;35.80;;;;;;4908078;29;20032;-78
2021/04/11 04:43:02;;;;;;;0.00;0.00;;;20.90;35.80;;;;;;4903289;29;20048;-77
2021/04/11 04:45:55;;;;;;;0.08;0.00;;;20.90;35.80;;;;;;4896298;29;20481;-78
2021/04/11 04:48:29;;;;;;;0.00;0.00;;;20.80;35.80;;;;;;4892414;29;20044;-79
2021/04/11 04:51:02;;;;;;;0.00;0.00;;;20.80;35.80;;;;;;4875251;29;20084;-78
2021/04/11 04:53:46;;;;;;;0.00;0.00;;;20.80;35.80;;;;;;4883828;29;20088;-78
2021/04/11 04:56:17;;;;;;;0.00;0.00;;;20.80;35.80;;;;;;4902672;29;20069;-78
2021/04/11 04:58:44;;;;;;;0.00;0.00;;;20.80;35.80;;;;;;4908320;29;20523;-78
2021/04/11 05:01:17;;;;;;;0.10;0.10;;;20.80;35.90;;;;;;4904469;29;20044;-78
2021/04/11 05:03:45;;;;;;;0.00;0.00;;;20.80;35.90;;;;;;4909894;29;20501;-78
2021/04/11 05:06:17;;;;;;;0.00;0.00;;;20.80;35.80;;;;;;4883767;29;20036;-77
2021/04/11 05:08:48;;;;;;;0.25;0.10;;;20.70;35.80;;;;;;4907217;29;20164;-77
2021/04/11 05:11:36;;;;;;;0.10;0.10;;;20.70;35.80;;;;;;4909871;29;20041;-78
2021/04/11 05:14:09;;;;;;;0.10;0.10;;;20.70;35.90;;;;;;4966531;28;20526;-71
2021/04/11 05:16:38;;;;;;;0.00;0.00;;;20.70;35.90;;;;;;4958057;28;20019;-71
2021/04/11 05:22:30;;;;;;;0.10;0.10;;;20.70;35.90;;;;;;4982449;28;20053;-71
2021/04/11 05:25:08;;;;;;;0.00;0.00;;;20.70;36.00;;;;;;4967873;28;20026;-71
2021/04/11 05:27:52;;;;;;;0.10;0.10;;;20.70;35.90;;;;;;4966443;28;20046;-71
2021/04/11 05:30:26;;;;;;;0.20;0.10;;;20.70;35.90;;;;;;4964642;28;20023;-72
2021/04/11 05:32:52;;;;;;;0.00;0.00;;;20.70;36.00;;;;;;4958646;28;20026;-71
2021/04/11 05:35:18;;;;;;;0.22;0.10;;;20.70;35.90;;;;;;4944387;28;20518;-71
2021/04/11 05:38:05;;;;;;;0.00;0.00;;;20.70;35.90;;;;;;4952556;28;20126;-70
2021/04/11 05:40:35;;;;;;;0.00;0.00;;;20.70;35.90;;;;;;4977937;28;20027;-71
2021/04/11 05:43:13;;;;;;;0.47;0.03;;;20.70;36.00;;;;;;4994110;28;20490;-71
2021/04/11 05:46:24;;;;;;;0.10;0.10;;;20.70;36.00;;;;;;4993172;28;20030;-71
2021/04/11 05:48:55;;;;;;;1.90;0.35;;;20.70;35.90;;;;;;4974252;28;20034;-71
2021/04/11 05:51:30;;;;;;;0.22;0.00;;;20.70;36.80;;;;;;4974715;28;20027;-71
2021/04/11 05:53:57;;;;;;;0.00;0.00;;;20.70;36.60;;;;;;4993400;28;20514;-71
2021/04/11 05:56:25;;;;;;;0.10;0.00;;;20.70;36.00;;;;;;5010680;28;20080;-70
2021/04/11 05:58:59;;;;;;;0.10;0.05;;;20.70;36.00;;;;;;4993793;28;20466;-71
2021/04/11 06:01:33;;;;;;;0.00;0.00;;;20.70;36.00;;;;;;4974512;28;20540;-70
2021/04/11 06:04:02;;;;;;;0.00;0.00;;;20.60;36.00;;;;;;4977371;28;20057;-76
2021/04/11 06:06:42;;;;;;;0.00;0.00;;;20.70;36.10;;;;;;4977902;28;20029;-77
2021/04/11 06:09:23;;;;;;;0.10;0.10;;;20.70;36.10;;;;;;4981464;28;20443;-78
2021/04/11 06:12:16;;;;;;;0.20;0.00;;;20.70;36.10;;;;;;4994562;28;20097;-79
2021/04/11 06:15:02;;;;;;;0.13;0.10;;;20.60;36.10;;;;;;4974201;28;20037;-79
2021/04/11 06:17:34;;;;;;;;;;;20.60;36.20;;;;;;4993610;28;20050;-78
2021/04/11 06:20:00;;;;;;;0.57;0.08;;;20.60;36.20;;;;;;4977332;28;19997;-74
2021/04/11 06:22:45;;;;;;;0.00;0.00;;;20.60;36.30;;;;;;4976112;28;20117;-75
2021/04/11 06:25:29;;;;;;;0.95;0.20;;;20.60;36.30;;;;;;4971016;28;20019;-75
2021/04/11 06:28:05;;;;;;;0.20;0.13;;;20.60;36.40;;;;;;5008939;28;20291;-75
2021/04/11 06:30:35;;;;;;;;;;;20.70;36.30;;;;;;4991439;28;20018;-75
2021/04/11 06:33:12;;;;;;;0.10;0.10;;;20.70;36.20;;;;;;4976346;28;19910;-75
2021/04/11 06:36:01;;;;;;;0.10;0.10;;;20.70;36.10;;;;;;4971905;28;20045;-74
2021/04/11 06:38:35;;;;;;;0.10;0.00;;;20.80;36.20;;;;;;4977669;28;20056;-75
2021/04/11 06:41:06;;;;;;;0.70;0.40;;;20.70;36.20;;;;;;4977057;28;20022;-74
2021/04/11 06:44:09;;;;;;;0.32;0.25;;;20.80;36.00;;;;;;4994946;28;20027;-75
2021/04/11 06:46:41;;;;;;;0.10;0.10;;;20.90;35.90;;;;;;4994339;28;20026;-75
2021/04/11 06:49:22;;;;;;;0.00;0.00;;;20.90;36.40;;;;;;4977425;28;20019;-75
2021/04/11 06:51:47;;;;;;;0.00;0.00;;;21.00;35.60;;;;;;4994057;28;20046;-75
2021/04/11 06:54:39;;;;;;;3.40;0.30;;;21.00;35.60;;;;;;4993928;28;20065;-74
2021/04/11 06:57:18;;;;;;;0.20;0.10;;;21.00;36.20;;;;;;4977404;28;20030;-70
2021/04/11 07:00:05;;;;;;;1.08;0.20;;;21.10;35.50;;;;;;4991375;28;20022;-71
2021/04/11 07:02:34;;;;;;;1.75;0.10;;;21.10;35.30;;;;;;4988051;28;20034;-71
2021/04/11 07:05:31;;;;;;;0.10;0.00;;;21.20;35.30;;;;;;4994588;28;20022;-72
2021/04/11 07:08:12;;;;;;;0.00;0.00;;;21.20;35.20;;;;;;4914406;29;20036;-70
2021/04/11 07:11:05;;;;;;;0.28;0.10;;;21.20;35.10;;;;;;4915240;29;20028;-71
2021/04/11 07:13:49;;;;;;;0.15;0.10;;;21.20;35.00;;;;;;4915060;29;20048;-73
2021/04/11 07:16:27;;;;;;;0.00;0.00;;;21.30;35.10;;;;;;4913217;29;20404;-72
2021/04/11 07:19:14;;;;;;;0.10;0.10;;;21.30;35.10;;;;;;4899563;29;20044;-72
2021/04/11 07:21:59;;;;;;;0.25;0.20;;;21.30;35.00;;;;;;4916212;29;20060;-73
2021/04/11 07:24:25;;;;;;;0.70;0.17;;;21.30;35.00;;;;;;4898537;29;20055;-72
2021/04/11 07:27:22;;;;;;;0.00;0.00;;;21.30;34.90;;;;;;4914091;29;20470;-73
2021/04/11 07:30:11;;;;;;;0.03;0.03;;;21.40;35.00;;;;;;4917259;29;20087;-72
2021/04/11 07:32:45;;;;;;;0.45;0.20;;;21.40;34.90;;;;;;4913545;29;20040;-72
2021/04/11 07:35:41;;;;;;;0.00;0.00;;;21.40;34.80;;;;;;4914459;29;20571;-73
2021/04/11 07:38:34;;;;;;;0.00;0.00;;;21.40;34.80;;;;;;4900575;29;20175;-72
2021/04/11 07:41:52;;;;;;;0.00;0.00;;;21.40;34.80;;;;;;4909061;29;20296;-73
2021/04/11 07:44:51;;;;;;;0.10;0.10;;;21.50;34.70;;;;;;4953658;28;20042;-70
2021/04/11 07:47:54;;;;;;;0.00;0.00;;;21.50;34.70;;;;;;4974898;28;20518;-71
2021/04/11 07:50:40;;;;;;;0.20;0.17;;;21.50;34.70;;;;;;4989714;28;20023;-70
2021/04/11 07:53:18;;;;;;;0.13;0.10;;;21.50;34.60;;;;;;4990127;28;20034;-72
2021/04/11 07:55:49;;;;;;;1.17;0.10;;;21.50;34.60;;;;;;4990541;28;20375;-71
2021/04/11 07:58:19;;;;;;;0.10;0.10;;;21.50;34.70;;;;;;4992640;28;20030;-71
2021/04/11 08:01:21;;;;;;;0.30;0.17;;;21.50;34.50;;;;;;5009096;28;20030;-71
2021/04/11 08:04:05;;;;;;;0.10;0.10;;;21.50;34.50;;;;;;4990609;28;20034;-70
2021/04/11 08:06:34;;;;;;;0.10;0.00;;;21.60;34.50;;;;;;4988358;28;20117;-81
2021/04/11 08:09:19;;;;;;;0.10;0.10;;;21.60;34.60;;;;;;4989983;28;20072;-87
2021/04/11 08:11:52;;;;;;;1.40;0.28;;;21.60;34.50;;;;;;4975435;28;20041;-79
2021/04/11 08:14:27;;;;;;;0.00;0.00;;;21.60;34.30;;;;;;4974811;28;20026;-77
2021/04/11 08:17:11;;;;;;;0.00;0.00;;;21.60;34.30;;;;;;4990273;28;20084;-77
2021/04/11 08:20:10;;;;;;;0.55;0.10;;;21.60;34.30;;;;;;4992318;28;20494;-74
2021/04/11 08:22:57;;;;;;;0.55;0.10;;;21.70;34.40;;;;;;5006013;28;20038;-75
2021/04/11 08:25:40;;;;;;;0.20;0.13;;;21.70;34.40;;;;;;5010401;28;20034;-75
2021/04/11 08:28:12;;;;;;;0.10;0.05;;;21.70;34.40;;;;;;4991860;28;20030;-75
2021/04/11 08:31:08;;;;;;;2.22;0.10;;;21.60;35.00;;;;;;4992063;28;20023;-76
2021/04/11 08:33:43;;;;;;;0.25;0.25;;;21.60;34.30;;;;;;5005689;28;20030;-72
2021/04/11 08:36:36;;;;;;;0.10;0.10;;;21.60;34.40;;;;;;4975629;28;20114;-72
2021/04/11 08:39:26;;;;;;;0.52;0.10;;;21.60;34.40;;;;;;4971310;28;20038;-72
2021/04/11 08:42:18;;;;;;;0.00;0.00;;;21.60;34.50;;;;;;4968426;28;20027;-72
2021/04/11 08:45:11;;;;;;;0.15;0.10;;;21.50;34.40;;;;;;4943588;28;20173;-72
2021/04/11 08:47:52;;;;;;;0.00;0.00;;;21.60;34.50;;;;;;4934561;28;20070;-72
2021/04/11 08:50:24;;;;;;;0.20;0.20;;;21.60;34.50;;;;;;4967943;28;20533;-72
2021/04/11 08:53:04;;;;;;;0.10;0.10;;;21.60;34.50;;;;;;4948008;28;20015;-72
2021/04/11 08:55:41;;;;;;;0.10;0.10;;;21.60;34.50;;;;;;4950284;28;20042;-72
2021/04/11 08:58:35;;;;;;;0.10;0.10;;;21.70;34.40;;;;;;4952477;28;20093;-72
2021/04/11 09:01:26;;;;;;;0.25;0.20;;;21.70;34.40;;;;;;4967245;28;20522;-72
2021/04/11 09:04:13;;;;;;;0.20;0.20;;;21.70;34.40;;;;;;4956425;28;20088;-72
2021/04/11 09:06:47;;;;;;;0.13;0.10;;;21.70;34.50;;;;;;4947784;28;20482;-75
2021/04/11 09:09:16;;;;;;;1.92;0.20;;;21.60;34.30;;;;;;4972511;28;20114;-75
2021/04/11 09:12:03;;;;;;;0.40;0.32;;;21.60;34.40;;;;;;4974857;28;20036;-75
2021/04/11 09:14:37;;;;;;;0.88;0.45;;;21.60;34.50;;;;;;4967061;28;20165;-75
2021/04/11 09:17:39;;;;;;;0.20;0.20;;;21.60;34.50;;;;;;4968698;28;20410;-75
2021/04/11 09:20:20;;;;;;;0.10;0.10;;;21.60;34.50;;;;;;4951748;28;20022;-75
2021/04/11 09:22:57;;;;;;;0.20;0.20;;;21.60;34.50;;;;;;4947726;28;20069;-75
2021/04/11 09:25:25;;;;;;;0.57;0.20;;;21.60;34.60;;;;;;4975669;28;20031;-75
2021/04/11 09:28:21;;;;;;;0.10;0.10;;;21.50;34.60;;;;;;4956265;28;20574;-75
2021/04/11 09:31:28;;;;;;;0.10;0.10;;;21.60;34.70;;;;;;4966498;28;20027;-75
2021/04/11 09:34:16;;;;;;;1.13;0.30;;;21.50;35.30;;;;;;4955338;28;20042;-75
2021/04/11 09:37:03;;;;;;;0.45;0.10;;;21.50;34.70;;;;;;4969166;28;20043;-75
2021/04/11 09:39:50;;;;;;;0.35;0.10;;;21.50;34.90;;;;;;4985037;28;20030;-75
2021/04/11 09:42:38;;;;;;;0.10;0.10;;;21.50;34.90;;;;;;4975082;28;20030;-75
2021/04/11 09:45:31;;;;;;;1.13;0.50;;;21.60;34.80;;;;;;4987858;28;20022;-75
2021/04/11 09:48:12;;;;;;;0.20;0.20;;;21.60;34.70;;;;;;4988150;28;20033;-76
2021/04/11 09:51:15;;;;;;;0.20;0.10;;;21.70;34.60;;;;;;4989535;28;20521;-76
2021/04/11 09:54:13;;;;;;;0.80;0.17;;;21.70;34.50;;;;;;5002126;28;20038;-75
2021/04/11 09:57:00;;;;;;;0.08;0.08;;;21.80;34.30;;;;;;4899693;29;20135;-72
2021/04/11 09:59:48;;;;;;;0.10;0.10;;;21.90;34.30;;;;;;4919693;29;20163;-72
2021/04/11 10:02:31;;;;;;;0.00;0.00;;;21.90;34.20;;;;;;4917002;29;20393;-72
2021/04/11 10:05:10;;;;;;;0.10;0.10;;;21.90;34.10;;;;;;4903636;29;20029;-72
2021/04/11 10:08:09;;;;;;;0.75;0.63;;;22.00;34.00;;;;;;4923356;29;20160;-72
2021/04/11 10:11:01;;;;;;;4.82;0.20;;;22.00;33.90;;;;;;4922928;29;20046;-72
2021/04/11 10:13:32;;;;;;;0.28;0.10;;;22.00;33.80;;;;;;4909911;29;20123;-72
2021/04/11 10:16:20;;;;;;;0.28;0.10;;;22.10;33.80;;;;;;4919869;29;20024;-72
2021/04/11 10:19:30;;;;;;;0.08;0.08;;;22.10;34.30;;;;;;4929091;29;20075;-72
2021/04/11 10:22:24;;;;;;;0.22;0.20;;;22.10;33.50;;;;;;4930065;29;20559;-75
2021/04/11 10:25:07;;;;;;;0.10;0.10;;;22.10;33.60;;;;;;4903988;29;20040;-75
2021/04/11 10:28:06;;;;;;;0.00;0.00;;;22.10;33.50;;;;;;4909686;29;20120;-75
2021/04/11 10:30:33;;;;;;;0.10;0.10;;;22.10;33.50;;;;;;4920025;29;20507;-75
2021/04/11 10:33:06;;;;;;;0.20;0.20;;;22.10;33.60;;;;;;4931444;28;20034;-75
2021/04/11 10:36:18;;;;;;;0.20;0.20;;;22.10;33.50;;;;;;4976689;28;20027;-75
2021/04/11 10:38:45;;;;;;;0.32;0.28;;;22.10;33.60;;;;;;4968763;28;20094;-75
2021/04/11 10:41:20;;;;;;;0.85;0.25;;;22.10;33.50;;;;;;4979260;28;20375;-75
2021/04/11 10:44:19;;;;;;;0.80;0.10;;;22.10;33.50;;;;;;4992884;28;20621;-74
2021/04/11 10:46:58;;;;;;;0.05;0.00;;;22.10;33.50;;;;;;4975886;28;20015;-74
2021/04/11 10:49:49;;;;;;;0.75;0.30;;;22.10;33.50;;;;;;4967110;28;20085;-74
2021/04/11 10:52:43;;;;;;;0.73;0.25;;;22.10;33.50;;;;;;4992011;28;20125;-74
2021/04/11 10:55:18;;;;;;;0.35;0.20;;;22.10;33.30;;;;;;4973918;28;20030;-74
2021/04/11 10:57:43;;;;;;;1.13;0.40;;;22.10;33.30;;;;;;4995851;28;20056;-75
2021/04/11 11:00:31;;;;;;;0.30;0.20;;;22.10;33.40;;;;;;4995618;28;20485;-74
2021/04/11 11:02:59;;;;;;;0.30;0.30;;;22.10;33.40;;;;;;4992950;28;20030;-74
2021/04/11 11:05:42;;;;;;;0.77;0.38;;;22.10;33.40;;;;;;4992876;28;20034;-75
2021/04/11 11:08:22;;;;;;;1.48;0.43;;;22.10;33.50;;;;;;4985983;28;20502;-75
2021/04/11 11:11:10;;;;;;;1.08;0.47;;;22.10;33.50;;;;;;4994364;28;20109;-75
2021/04/11 11:13:41;;;;;;;0.88;0.40;;;22.10;33.50;;;;;;4997190;28;20030;-75
2021/04/11 11:16:09;;;;;;;0.45;0.45;;;22.00;33.50;;;;;;4995618;28;20030;-75
2021/04/11 11:19:12;;;;;;;0.90;0.32;;;22.10;33.40;;;;;;4983502;28;20113;-75
2021/04/11 11:21:57;;;;;;;0.60;0.30;;;22.00;33.30;;;;;;4993608;28;20449;-74
2021/04/11 11:24:27;;;;;;;0.40;0.40;;;22.00;33.30;;;;;;4977951;28;20054;-74
2021/04/11 11:27:15;;;;;;;0.40;0.40;;;22.00;33.30;;;;;;4976640;28;20521;-74
2021/04/11 11:30:09;;;;;;;0.98;0.40;;;22.00;33.30;;;;;;4985941;28;20034;-75
2021/04/11 11:32:52;;;;;;;0.50;0.50;;;22.10;33.30;;;;;;4977106;28;20555;-77
2021/04/11 11:35:18;;;;;;;0.40;0.40;;;22.10;33.90;;;;;;4980162;28;20030;-75
2021/04/11 11:37:55;;;;;;;1.85;0.50;;;22.10;33.20;;;;;;4969633;28;20109;-75
2021/04/11 11:40:29;;;;;;;1.75;0.40;;;22.00;33.10;;;;;;4985739;28;20018;-75
2021/04/11 11:43:14;;;;;;;0.52;0.50;;;22.00;33.10;;;;;;4977736;28;20038;-74
2021/04/11 11:46:31;;;;;;;0.60;0.43;;;22.00;33.10;;;;;;4997754;28;20066;-74
2021/04/11 11:49:07;;;;;;;0.40;0.40;;;22.00;33.30;;;;;;4922746;29;20074;-74
2021/04/11 11:51:37;;;;;;;0.65;0.47;;;22.00;33.30;;;;;;4917016;29;20512;-74
2021/04/11 11:54:10;;;;;;;1.10;0.57;;;22.00;33.30;;;;;;4904029;29;20034;-74
2021/04/11 11:57:06;;;;;;;0.80;0.63;;;22.00;33.40;;;;;;4896619;29;20036;-74
2021/04/11 11:59:57;;;;;;;1.23;0.53;;;22.00;33.40;;;;;;4892672;29;20041;-74
2021/04/11 12:02:49;;;;;;;0.90;0.60;;;22.00;33.50;;;;;;4893805;29;20035;-74
2021/04/11 12:05:53;;;;;;;0.52;0.30;;;22.00;33.50;;;;;;4876884;29;20048;-74
2021/04/11 12:08:36;;;;;;;1.17;0.60;;;22.00;33.50;;;;;;4850615;29;20042;-74
2021/04/11 12:11:09;;;;;;;0.90;0.40;;;22.00;33.50;;;;;;4871483;29;20049;-74
2021/04/11 12:13:43;;;;;;;0.35;0.30;;;22.00;33.50;;;;;;4855091;29;20049;-74
2021/04/11 12:16:15;;;;;;;0.65;0.60;;;22.00;33.50;;;;;;4854232;29;20567;-74
2021/04/11 12:19:06;;;;;;;0.40;0.40;;;22.00;33.50;;;;;;4833533;29;20532;-74
2021/04/11 12:21:37;;;;;;;0.40;0.40;;;22.00;33.60;;;;;;4864279;29;20086;-74
2021/04/11 12:24:20;;;;;;;0.47;0.47;;;22.00;33.60;;;;;;4839061;29;20057;-74
2021/04/11 12:26:50;;;;;;;0.40;0.40;;;22.00;33.60;;;;;;4872143;29;20126;-74
2021/04/11 12:29:18;;;;;;;1.13;0.50;;;22.00;33.60;;;;;;4872049;29;20044;-74
2021/04/11 12:31:44;;;;;;;2.42;0.70;;;22.00;33.60;;;;;;4867226;29;20036;-74
2021/04/11 12:34:47;;;;;;;0.63;0.40;;;22.00;33.60;;;;;;4844671;29;20089;-74
2021/04/11 12:37:24;;;;;;;0.68;0.43;;;22.00;33.60;;;;;;4928439;29;20439;-74
2021/04/11 12:39:58;;;;;;;0.70;0.50;;;22.00;33.60;;;;;;4916176;29;20385;-71
2021/04/11 12:42:40;;;;;;;1.23;0.70;;;22.00;33.60;;;;;;4915021;29;20038;-71
2021/04/11 12:45:35;;;;;;;0.65;0.40;;;22.00;33.60;;;;;;4939416;28;20454;-71
2021/04/11 12:48:22;;;;;;;0.40;0.40;;;22.00;33.70;;;;;;4970123;28;20105;-71
2021/04/11 12:50:57;;;;;;;0.43;0.32;;;22.00;33.60;;;;;;4977318;28;20179;-71
2021/04/11 12:53:35;;;;;;;0.50;0.50;;;22.00;33.60;;;;;;4976795;28;20030;-71
2021/04/11 12:56:04;;;;;;;4.05;0.40;;;22.00;33.60;;;;;;4971914;28;20061;-71
2021/04/11 12:58:42;;;;;;;0.35;0.20;;;22.00;33.70;;;;;;4976131;28;20033;-71
2021/04/11 13:01:11;;;;;;;0.80;0.20;;;22.00;33.60;;;;;;4987409;28;20038;-72
2021/04/11 13:03:55;;;;;;;0.20;0.20;;;22.00;33.60;;;;;;4989689;28;20037;-71
2021/04/11 13:06:24;;;;;;;0.20;0.15;;;22.00;33.60;;;;;;4992229;28;20038;-71
2021/04/11 13:09:08;;;;;;;0.10;0.10;;;22.00;33.60;;;;;;4959097;28;20053;-72
2021/04/11 13:12:08;;;;;;;0.90;0.17;;;22.00;33.60;;;;;;4996056;28;20042;-71
2021/04/11 13:15:00;;;;;;;0.30;0.30;;;22.10;33.60;;;;;;4975942;28;20022;-72
2021/04/11 13:17:49;;;;;;;0.10;0.10;;;22.10;33.60;;;;;;4977298;28;20494;-71
2021/04/11 13:20:40;;;;;;;0.10;0.10;;;22.10;33.60;;;;;;4956243;28;20035;-71
2021/04/11 13:23:10;;;;;;;1.17;0.47;;;22.10;33.60;;;;;;4906772;29;20057;-71
2021/04/11 13:26:00;;;;;;;0.22;0.22;;;22.10;33.60;;;;;;4915377;29;20036;-71
2021/04/11 13:28:34;;;;;;;0.28;0.20;;;22.10;33.60;;;;;;4891744;29;20133;-72
2021/04/11 13:31:15;;;;;;;0.00;0.00;;;22.10;33.60;;;;;;4905233;29;20502;-71
2021/04/11 13:33:54;;;;;;;0.40;0.40;;;22.10;33.60;;;;;;4918071;29;20119;-71
2021/04/11 13:36:27;;;;;;;1.05;0.40;;;22.10;33.60;;;;;;4902397;29;20043;-72
2021/04/11 13:39:02;;;;;;;0.00;0.00;;;22.10;33.60;;;;;;4909749;29;20127;-72
2021/04/11 13:41:36;;;;;;;0.25;0.25;;;22.10;33.60;;;;;;4915057;29;20480;-72
2021/04/11 13:44:15;;;;;;;0.15;0.15;;;22.10;33.60;;;;;;4897320;29;20039;-72
2021/04/11 13:47:05;;;;;;;0.50;0.22;;;22.10;33.60;;;;;;4916766;29;20533;-72
2021/04/11 13:49:40;;;;;;;0.10;0.10;;;22.00;34.20;;;;;;4892833;29;20206;-72